Time;durP1;ratioP1;P1;durP2;ratioP2;P2;SDS_P1;SDS_P2;PMS_P1;PMS_P2;Temp;Humidity;BMP_temperature;BMP_pressure;BME280_temperature;BME280_humidity;BME280_pressure;Samples;Min_cycle;Max_cycle;Signal;HPM_P1;HPM_P2
2021/04/27 12:52:52;;;;;;;5.03;4.53;;;8.20;97.10;;;;;;5112542;27;20388;-91
2021/04/27 12:55:26;;;;;;;5.05;4.43;;;8.50;97.80;;;;;;5091028;28;20126;-90
2021/04/27 12:58:09;;;;;;;6.25;4.30;;;8.50;98.20;;;;;;5087628;28;20324;-93
2021/04/27 13:00:59;;;;;;;4.65;4.15;;;8.50;98.60;;;;;;5090691;28;20104;-92
2021/04/27 13:03:27;;;;;;;4.82;4.38;;;8.50;97.30;;;;;;5076667;28;20417;-91
2021/04/27 13:05:54;;;;;;;4.68;4.22;;;8.50;98.70;;;;;;5089212;28;20060;-91
2021/04/27 13:08:26;;;;;;;4.22;3.83;;;8.50;98.70;;;;;;5083886;28;20032;-90
2021/04/27 13:10:53;;;;;;;4.93;4.43;;;8.40;98.90;;;;;;5089991;28;20170;-92
2021/04/27 13:13:23;;;;;;;6.22;5.43;;;8.30;99.10;;;;;;5103893;28;20092;-91
2021/04/27 13:15:58;;;;;;;6.50;5.88;;;8.10;98.70;;;;;;5096246;28;20028;-91
2021/04/27 13:18:27;;;;;;;7.32;5.88;;;7.80;98.90;;;;;;5074730;28;20033;-90
2021/04/27 13:20:55;;;;;;;7.82;6.18;;;7.60;99.70;;;;;;5085629;28;20422;-91
2021/04/27 13:23:27;;;;;;;7.05;6.35;;;7.30;99.90;;;;;;5068614;28;20032;-91
2021/04/27 13:26:01;;;;;;;7.57;6.65;;;7.20;99.90;;;;;;5071579;28;20142;-92
2021/04/27 13:28:31;;;;;;;8.35;7.45;;;7.10;99.90;;;;;;5088305;28;20035;-91
2021/04/27 13:30:57;;;;;;;10.05;7.80;;;6.90;99.90;;;;;;5096361;28;20039;-91
2021/04/27 13:33:29;;;;;;;8.50;7.70;;;6.80;99.90;;;;;;5080450;28;20092;-91
2021/04/27 13:35:56;;;;;;;8.25;6.93;;;6.70;99.90;;;;;;5100848;28;20021;-92
2021/04/27 13:38:29;;;;;;;7.30;6.60;;;6.70;99.90;;;;;;5091732;28;20539;-91
2021/04/27 13:40:57;;;;;;;6.88;6.18;;;6.60;99.90;;;;;;5094697;28;20035;-92
2021/04/27 13:43:27;;;;;;;6.75;6.00;;;6.60;99.90;;;;;;5096892;28;20389;-92
2021/04/27 13:45:56;;;;;;;5.63;5.05;;;6.60;99.90;;;;;;5091743;28;20025;-92
2021/04/27 13:48:28;;;;;;;5.93;5.20;;;6.50;99.90;;;;;;5085788;28;20050;-92
2021/04/27 13:51:00;;;;;;;6.40;5.80;;;6.50;99.90;;;;;;5091363;28;20040;-92
2021/04/27 13:53:27;;;;;;;6.45;5.65;;;6.60;99.90;;;;;;5096610;28;20127;-92
2021/04/27 13:55:54;;;;;;;5.57;5.05;;;6.60;99.90;;;;;;5095904;28;20034;-92
2021/04/27 13:58:20;;;;;;;6.00;5.40;;;6.70;99.90;;;;;;5089763;28;20039;-92
2021/04/27 14:00:47;;;;;;;6.35;5.75;;;6.80;99.90;;;;;;5102457;28;20020;-91
2021/04/27 14:03:13;;;;;;;6.43;5.82;;;6.90;99.90;;;;;;5087830;28;20055;-91
2021/04/27 14:05:40;;;;;;;7.90;7.10;;;6.90;99.90;;;;;;5082214;28;20469;-91
2021/04/27 14:08:08;;;;;;;7.43;6.72;;;7.00;99.90;;;;;;5079953;28;20068;-91
2021/04/27 14:10:34;;;;;;;7.22;6.43;;;7.10;99.90;;;;;;5077309;28;20055;-91
2021/04/27 14:13:00;;;;;;;7.28;6.57;;;7.10;99.90;;;;;;5081372;28;20029;-91
2021/04/27 14:15:29;;;;;;;8.73;7.85;;;7.10;99.90;;;;;;5076791;28;20477;-92
2021/04/27 14:17:56;;;;;;;8.43;7.43;;;7.10;99.90;;;;;;5089358;28;20086;-90
2021/04/27 14:20:27;;;;;;;8.65;7.75;;;7.20;99.90;;;;;;5083834;28;20444;-91
2021/04/27 14:22:53;;;;;;;9.95;7.82;;;7.10;99.90;;;;;;5067168;28;20028;-91
2021/04/27 14:25:19;;;;;;;9.45;7.97;;;7.10;99.90;;;;;;5085068;28;20039;-91
2021/04/27 14:27:45;;;;;;;8.38;7.03;;;7.10;99.90;;;;;;5062853;28;20033;-91
2021/04/27 14:30:16;;;;;;;8.10;7.30;;;7.00;99.90;;;;;;5078566;28;20027;-92
2021/04/27 14:32:47;;;;;;;7.75;6.50;;;7.00;99.90;;;;;;5088219;28;20021;-92
2021/04/27 14:35:15;;;;;;;6.60;6.00;;;7.00;99.90;;;;;;5081578;28;20077;-93
2021/04/27 14:37:42;;;;;;;7.65;6.85;;;7.00;99.90;;;;;;5062813;28;20039;-92
2021/04/27 14:40:09;;;;;;;9.63;7.90;;;7.10;99.90;;;;;;5077897;28;20028;-92
2021/04/27 14:42:35;;;;;;;8.85;7.88;;;7.10;99.90;;;;;;5065538;28;20034;-92
2021/04/27 14:45:02;;;;;;;10.13;7.78;;;7.00;99.90;;;;;;5077733;28;20051;-93
2021/04/27 14:47:28;;;;;;;7.32;6.50;;;7.00;99.90;;;;;;5083632;28;20036;-92
2021/04/27 14:49:54;;;;;;;7.53;6.80;;;7.00;99.90;;;;;;5071382;28;20500;-91
2021/04/27 14:52:20;;;;;;;7.78;6.97;;;6.90;99.90;;;;;;5086457;28;20392;-92
2021/04/27 14:54:46;;;;;;;6.47;5.72;;;6.80;99.90;;;;;;5086060;28;20024;-93
2021/04/27 14:57:12;;;;;;;7.03;5.85;;;6.60;99.90;;;;;;5085961;28;20016;-91
2021/04/27 14:59:38;;;;;;;6.78;5.30;;;6.50;99.90;;;;;;5073740;28;20032;-91
2021/04/27 15:02:04;;;;;;;6.53;5.53;;;6.40;99.90;;;;;;5085703;28;20496;-92
2021/04/27 15:04:31;;;;;;;6.40;5.65;;;6.30;99.90;;;;;;5064493;28;20020;-91
2021/04/27 15:06:57;;;;;;;5.10;4.60;;;6.30;99.90;;;;;;5058264;28;20032;-92
2021/04/27 15:09:23;;;;;;;5.10;4.70;;;6.30;99.90;;;;;;5063208;28;20500;-94
2021/04/27 15:11:49;;;;;;;5.43;4.93;;;6.30;99.90;;;;;;5076763;28;20550;-91
2021/04/27 15:14:15;;;;;;;5.85;5.32;;;6.30;99.90;;;;;;5073663;28;20060;-92
2021/04/27 15:17:03;;;;;;;5.78;5.28;;;6.30;99.90;;;;;;5083522;28;20428;-92
2021/04/27 15:19:29;;;;;;;5.82;5.22;;;6.10;99.90;;;;;;5076294;28;20033;-90
2021/04/27 15:21:55;;;;;;;7.40;5.97;;;6.10;99.90;;;;;;5080608;28;20066;-90
2021/04/27 15:24:21;;;;;;;6.68;6.03;;;6.00;99.90;;;;;;5074056;28;20085;-92
2021/04/27 15:26:48;;;;;;;7.03;6.32;;;6.00;99.90;;;;;;5078742;28;20373;-91
2021/04/27 15:29:13;;;;;;;6.80;6.20;;;5.90;99.90;;;;;;5077574;28;20362;-92
2021/04/27 15:31:50;;;;;;;6.50;5.90;;;5.90;99.90;;;;;;5078534;28;20085;-92
2021/04/27 15:34:17;;;;;;;6.65;5.97;;;5.90;99.90;;;;;;5060171;28;20033;-92
2021/04/27 15:36:43;;;;;;;6.90;6.15;;;5.90;99.90;;;;;;5076336;28;20096;-92
2021/04/27 15:39:12;;;;;;;6.78;6.15;;;5.90;99.90;;;;;;5061636;28;20053;-92
2021/04/27 15:41:39;;;;;;;7.03;6.32;;;6.00;99.90;;;;;;5080864;28;20047;-91
2021/04/27 15:44:05;;;;;;;7.28;6.55;;;6.10;99.90;;;;;;5078355;28;20111;-92
2021/04/27 15:46:35;;;;;;;7.25;6.55;;;6.10;99.90;;;;;;5083516;28;20032;-93
2021/04/27 15:49:02;;;;;;;7.45;6.70;;;6.20;99.90;;;;;;5079760;28;20449;-91
2021/04/27 15:51:28;;;;;;;7.63;6.43;;;6.10;99.90;;;;;;5078017;28;20497;-92
2021/04/27 15:53:54;;;;;;;7.68;6.88;;;6.10;99.90;;;;;;5074843;28;20036;-92
2021/04/27 15:56:20;;;;;;;7.85;7.15;;;6.00;99.90;;;;;;5075471;28;20028;-91
2021/04/27 15:58:46;;;;;;;7.80;7.10;;;6.00;99.90;;;;;;5082880;28;20055;-91
2021/04/27 16:01:12;;;;;;;7.35;6.65;;;6.00;99.90;;;;;;5074709;28;20415;-90
2021/04/27 16:03:37;;;;;;;8.75;7.88;;;6.00;99.90;;;;;;5073306;28;20102;-91
2021/04/27 16:06:04;;;;;;;8.82;7.93;;;6.00;99.90;;;;;;5074019;28;20103;-91
2021/04/27 16:08:30;;;;;;;8.38;7.57;;;6.00;99.90;;;;;;5066017;28;20043;-91
2021/04/27 16:10:57;;;;;;;8.77;7.85;;;6.00;99.90;;;;;;5082585;28;20108;-92
2021/04/27 16:13:23;;;;;;;7.85;7.05;;;6.00;99.90;;;;;;5077763;28;20055;-92
2021/04/27 16:15:49;;;;;;;7.20;6.50;;;6.00;99.90;;;;;;5094817;28;20047;-92
2021/04/27 16:18:14;;;;;;;8.40;7.25;;;6.00;99.90;;;;;;5079397;28;20121;-92
2021/04/27 16:20:40;;;;;;;9.20;6.75;;;6.10;99.90;;;;;;5076512;28;20020;-92
2021/04/27 16:23:07;;;;;;;7.85;7.13;;;6.10;99.90;;;;;;5078451;28;20481;-92
2021/04/27 16:25:36;;;;;;;7.15;6.45;;;6.10;99.90;;;;;;5075156;28;20020;-92
2021/04/27 16:28:02;;;;;;;7.57;6.53;;;6.10;99.90;;;;;;5074524;28;20123;-91
2021/04/27 16:30:28;;;;;;;8.00;6.15;;;6.10;99.90;;;;;;5074914;28;20437;-92
2021/04/27 16:32:54;;;;;;;8.48;6.75;;;6.10;99.90;;;;;;5078823;28;20029;-93
2021/04/27 16:35:20;;;;;;;6.35;5.75;;;6.20;99.90;;;;;;5077461;28;20086;-93
2021/04/27 16:37:46;;;;;;;7.53;6.70;;;6.20;99.90;;;;;;5077737;28;20049;-93
2021/04/27 16:40:13;;;;;;;7.85;6.82;;;6.20;99.90;;;;;;5079638;28;20025;-93
2021/04/27 16:42:39;;;;;;;7.72;6.93;;;6.30;99.90;;;;;;5077286;28;20029;-92
2021/04/27 16:45:07;;;;;;;8.98;8.13;;;6.30;99.90;;;;;;5080156;28;20149;-92
2021/04/27 16:47:33;;;;;;;10.75;9.65;;;6.30;99.90;;;;;;5082516;28;20381;-92
2021/04/27 16:49:59;;;;;;;10.95;9.05;;;6.20;99.90;;;;;;5077174;28;20149;-92
2021/04/27 16:52:25;;;;;;;9.07;8.18;;;6.20;99.90;;;;;;5075274;28;20157;-92
2021/04/27 16:54:51;;;;;;;8.35;7.03;;;6.20;99.90;;;;;;5077355;28;20493;-92
2021/04/27 16:57:17;;;;;;;7.25;6.55;;;6.20;99.90;;;;;;5080494;28;20119;-92
2021/04/27 16:59:45;;;;;;;8.48;7.57;;;6.20;99.90;;;;;;5078812;28;20028;-92
2021/04/27 17:02:12;;;;;;;8.07;7.10;;;6.20;99.90;;;;;;5083651;28;20025;-92
2021/04/27 17:04:38;;;;;;;8.00;6.75;;;6.10;99.90;;;;;;5077501;28;20038;-92
2021/04/27 17:07:04;;;;;;;7.60;6.63;;;6.20;99.90;;;;;;5074336;28;20477;-91
2021/04/27 17:09:30;;;;;;;6.53;5.93;;;6.20;99.90;;;;;;5075737;28;20030;-91
2021/04/27 17:11:56;;;;;;;7.03;5.88;;;6.20;99.90;;;;;;5075028;28;20037;-92
2021/04/27 17:14:22;;;;;;;6.22;5.63;;;6.10;99.90;;;;;;5074240;28;20035;-92
2021/04/27 17:16:48;;;;;;;6.07;5.47;;;6.10;99.90;;;;;;5083087;28;20043;-91
2021/04/27 17:19:14;;;;;;;6.20;5.60;;;6.10;99.90;;;;;;5086888;28;20119;-92
2021/04/27 17:21:40;;;;;;;6.07;5.00;;;6.10;99.90;;;;;;5086404;28;20048;-93
2021/04/27 17:24:06;;;;;;;6.13;5.30;;;6.00;99.90;;;;;;5085742;28;20068;-93
2021/04/27 17:26:32;;;;;;;5.88;5.18;;;6.00;99.90;;;;;;5078115;28;20111;-92
2021/04/27 17:28:58;;;;;;;4.80;4.40;;;6.00;99.90;;;;;;5079281;28;20055;-92
2021/04/27 17:31:24;;;;;;;6.20;5.53;;;6.00;99.90;;;;;;5080136;28;20493;-92
2021/04/27 17:33:50;;;;;;;5.90;5.40;;;6.00;99.90;;;;;;5079536;28;20029;-92
2021/04/27 17:36:16;;;;;;;6.63;5.95;;;5.80;99.90;;;;;;5076662;28;20020;-93
2021/04/27 17:38:42;;;;;;;6.95;6.25;;;5.70;99.90;;;;;;5084519;28;20405;-92
2021/04/27 17:41:08;;;;;;;6.10;5.50;;;5.60;99.90;;;;;;5088814;28;20485;-92
2021/04/27 17:43:34;;;;;;;6.20;5.43;;;5.50;99.90;;;;;;5098589;28;20028;-92
2021/04/27 17:46:00;;;;;;;7.97;6.65;;;5.50;99.90;;;;;;5098364;28;20025;-92
2021/04/27 17:48:26;;;;;;;9.05;6.07;;;5.40;99.90;;;;;;5083994;28;20024;-92
2021/04/27 17:50:52;;;;;;;7.60;6.85;;;5.30;99.90;;;;;;5080087;28;20037;-92
2021/04/27 17:53:18;;;;;;;8.07;6.43;;;5.20;99.90;;;;;;5080176;28;20028;-92
2021/04/27 17:55:44;;;;;;;6.90;6.05;;;5.00;99.90;;;;;;5080100;28;20024;-92
2021/04/27 17:58:11;;;;;;;7.68;6.22;;;5.00;99.90;;;;;;5081601;28;20033;-92
2021/04/27 18:00:36;;;;;;;10.18;8.50;;;4.90;99.90;;;;;;5083535;28;20029;-92
2021/04/27 18:03:02;;;;;;;9.23;7.97;;;4.80;99.90;;;;;;5084145;28;20075;-92
2021/04/27 18:05:30;;;;;;;10.63;8.32;;;4.70;99.90;;;;;;5081607;28;20064;-92
2021/04/27 18:07:57;;;;;;;9.43;8.30;;;4.70;99.90;;;;;;5079467;28;20482;-92
2021/04/27 18:10:24;;;;;;;9.50;8.50;;;4.60;99.90;;;;;;5079698;28;20025;-92
2021/04/27 18:12:54;;;;;;;9.35;8.45;;;4.60;99.90;;;;;;5079142;28;20485;-93
2021/04/27 18:15:31;;;;;;;10.25;8.60;;;4.60;99.90;;;;;;5083608;28;20112;-92
2021/04/27 18:17:57;;;;;;;12.60;10.05;;;4.60;99.90;;;;;;5080005;28;20040;-93
2021/04/27 18:20:25;;;;;;;11.02;9.93;;;4.60;99.90;;;;;;5076275;28;20366;-93
2021/04/27 18:22:53;;;;;;;13.32;10.63;;;4.60;99.90;;;;;;5075298;28;20100;-92
2021/04/27 18:25:21;;;;;;;11.23;10.05;;;4.60;99.90;;;;;;5076373;28;20093;-92
2021/04/27 18:27:47;;;;;;;12.20;10.02;;;4.50;99.90;;;;;;5079595;28;20496;-92
2021/04/27 18:30:15;;;;;;;11.82;10.45;;;4.60;99.90;;;;;;5082394;28;20021;-92
2021/04/27 18:32:41;;;;;;;11.50;10.13;;;4.60;99.90;;;;;;5080314;28;20052;-92
2021/04/27 18:35:08;;;;;;;10.43;9.00;;;4.60;99.90;;;;;;5081243;28;20082;-92
2021/04/27 18:37:34;;;;;;;11.95;10.27;;;4.60;99.90;;;;;;5085076;28;20060;-92
2021/04/27 18:40:00;;;;;;;11.50;10.30;;;4.60;99.90;;;;;;5096941;28;20089;-92
2021/04/27 18:42:26;;;;;;;10.55;9.45;;;4.60;99.90;;;;;;5097040;28;20401;-91
2021/04/27 18:44:52;;;;;;;11.25;9.65;;;4.60;99.90;;;;;;5080368;28;20020;-90
2021/04/27 18:47:18;;;;;;;10.00;9.00;;;4.60;99.90;;;;;;5079660;28;20123;-92
2021/04/27 18:49:44;;;;;;;8.32;7.53;;;4.60;99.90;;;;;;5075450;28;20016;-92
2021/04/27 18:52:10;;;;;;;9.50;8.27;;;4.50;99.90;;;;;;5075968;28;20040;-91
2021/04/27 18:54:36;;;;;;;10.48;9.38;;;4.50;99.90;;;;;;5077644;28;20040;-91
2021/04/27 18:57:02;;;;;;;10.52;9.38;;;4.40;99.90;;;;;;5094671;28;20008;-91
2021/04/27 18:59:29;;;;;;;10.00;8.93;;;4.30;99.90;;;;;;5098526;28;20017;-91
2021/04/27 19:01:55;;;;;;;9.93;8.82;;;4.20;99.90;;;;;;5081612;28;20114;-91
2021/04/27 19:04:20;;;;;;;10.30;9.27;;;4.20;99.90;;;;;;5076298;28;20105;-91
2021/04/27 19:06:47;;;;;;;10.25;8.98;;;4.10;99.90;;;;;;5076273;28;20394;-91
2021/04/27 19:09:12;;;;;;;11.55;9.07;;;4.00;99.90;;;;;;5075399;28;20055;-91
2021/04/27 19:11:39;;;;;;;13.70;10.27;;;3.90;99.90;;;;;;5075274;28;20036;-90
2021/04/27 19:14:09;;;;;;;10.70;8.95;;;3.80;99.90;;;;;;5076039;28;20036;-91
2021/04/27 19:16:38;;;;;;;9.98;8.98;;;3.80;99.90;;;;;;5077513;28;20452;-91
2021/04/27 19:19:05;;;;;;;10.57;9.40;;;3.70;99.90;;;;;;5076331;28;20481;-91
2021/04/27 19:21:33;;;;;;;11.15;9.95;;;3.60;99.90;;;;;;5075427;28;20028;-90
2021/04/27 19:23:59;;;;;;;12.52;10.38;;;3.60;99.90;;;;;;5078251;28;20024;-91
2021/04/27 19:26:25;;;;;;;11.45;10.25;;;3.50;99.90;;;;;;5077158;28;20052;-91
2021/04/27 19:28:50;;;;;;;11.60;10.43;;;3.50;99.90;;;;;;5079077;28;20033;-90
2021/04/27 19:31:17;;;;;;;12.50;11.18;;;3.50;99.90;;;;;;5076098;28;20110;-92
2021/04/27 19:33:43;;;;;;;14.65;12.63;;;3.40;99.90;;;;;;5076340;28;20029;-89
2021/04/27 19:36:09;;;;;;;14.38;12.40;;;3.40;99.90;;;;;;5076564;28;20041;-91
2021/04/27 19:38:34;;;;;;;14.15;12.65;;;3.30;99.90;;;;;;5074433;28;20549;-91
2021/04/27 19:41:00;;;;;;;15.63;12.65;;;3.30;99.90;;;;;;5074129;28;20051;-91
2021/04/27 19:43:26;;;;;;;14.18;12.63;;;3.30;99.90;;;;;;5073654;28;20032;-91
2021/04/27 19:45:52;;;;;;;14.35;12.85;;;3.30;99.90;;;;;;5073874;28;20392;-91
2021/04/27 19:48:18;;;;;;;14.30;12.20;;;3.30;99.90;;;;;;5074625;28;20078;-91
2021/04/27 19:50:44;;;;;;;13.98;12.07;;;3.20;99.90;;;;;;5078153;28;20036;-91
2021/04/27 19:53:11;;;;;;;14.32;12.68;;;3.20;99.90;;;;;;5091796;28;20012;-90
2021/04/27 19:55:40;;;;;;;13.48;11.93;;;3.20;99.90;;;;;;5097447;28;20016;-90
2021/04/27 19:58:05;;;;;;;15.45;13.40;;;3.20;99.90;;;;;;5090784;28;20032;-91
2021/04/27 20:00:31;;;;;;;18.17;15.07;;;3.10;99.90;;;;;;5076576;28;20024;-91
2021/04/27 20:02:57;;;;;;;18.00;13.52;;;3.10;99.90;;;;;;5078862;28;20078;-91
2021/04/27 20:05:24;;;;;;;24.83;18.80;;;3.10;99.90;;;;;;5075045;28;20025;-91
2021/04/27 20:07:50;;;;;;;31.05;23.02;;;3.00;99.90;;;;;;5079381;28;20052;-90
2021/04/27 20:10:17;;;;;;;35.95;26.10;;;3.00;99.90;;;;;;5074539;28;20401;-91
2021/04/27 20:12:43;;;;;;;37.85;26.98;;;3.00;99.90;;;;;;5073715;28;20127;-90
2021/04/27 20:15:10;;;;;;;45.78;32.42;;;3.00;99.90;;;;;;5072876;28;20020;-90
2021/04/27 20:17:36;;;;;;;51.53;33.63;;;3.00;99.90;;;;;;5079099;28;20033;-90
2021/04/27 20:20:02;;;;;;;45.08;29.90;;;2.90;99.90;;;;;;5088278;28;20025;-89
2021/04/27 20:22:28;;;;;;;46.17;30.10;;;2.90;99.90;;;;;;5087719;28;20028;-92
2021/04/27 20:24:54;;;;;;;49.47;32.30;;;2.80;99.90;;;;;;5081429;28;20029;-92
2021/04/27 20:27:20;;;;;;;45.90;30.20;;;2.80;99.90;;;;;;5072980;28;20112;-92
2021/04/27 20:29:45;;;;;;;47.08;31.08;;;2.80;99.90;;;;;;5073031;28;20024;-92
2021/04/27 20:32:11;;;;;;;43.10;27.50;;;2.70;99.90;;;;;;5072014;28;20047;-92
2021/04/27 20:34:37;;;;;;;36.88;24.55;;;2.70;99.90;;;;;;5071991;28;20056;-92
2021/04/27 20:37:04;;;;;;;37.00;25.58;;;2.70;99.90;;;;;;5072826;28;20386;-92
2021/04/27 20:39:30;;;;;;;41.97;30.17;;;2.60;99.90;;;;;;5073596;28;20021;-92
2021/04/27 20:41:57;;;;;;;40.08;27.17;;;2.60;99.90;;;;;;5072000;28;20058;-92
2021/04/27 20:44:23;;;;;;;45.38;29.83;;;2.60;99.90;;;;;;5071879;28;20028;-92
2021/04/27 20:46:49;;;;;;;46.78;31.15;;;2.60;99.90;;;;;;5071760;28;20024;-92
2021/04/27 20:49:16;;;;;;;43.60;28.65;;;2.50;99.90;;;;;;5072156;28;20116;-92
2021/04/27 20:51:43;;;;;;;39.28;27.27;;;2.50;99.90;;;;;;5071860;28;20041;-92
2021/04/27 20:54:09;;;;;;;41.67;28.48;;;2.40;99.90;;;;;;5072802;28;20039;-91
2021/04/27 20:56:35;;;;;;;47.38;29.77;;;2.40;99.90;;;;;;5074782;28;20103;-92
2021/04/27 20:59:02;;;;;;;44.20;28.15;;;2.40;99.90;;;;;;5072468;28;20110;-92
2021/04/27 21:01:28;;;;;;;37.88;25.50;;;2.30;99.90;;;;;;5071873;28;20009;-92
2021/04/27 21:03:54;;;;;;;38.78;25.55;;;2.30;99.90;;;;;;5071945;28;20035;-92
2021/04/27 21:06:20;;;;;;;38.13;27.10;;;2.30;99.90;;;;;;5071778;28;20021;-91
2021/04/27 21:08:45;;;;;;;40.08;28.20;;;2.30;99.90;;;;;;5071658;28;20366;-91
2021/04/27 21:11:11;;;;;;;37.55;26.33;;;2.20;99.90;;;;;;5071532;28;20040;-92
2021/04/27 21:13:37;;;;;;;37.85;25.77;;;2.20;99.90;;;;;;5074665;28;20040;-92
2021/04/27 21:16:03;;;;;;;36.47;25.60;;;2.20;99.90;;;;;;5077221;28;20470;-91
2021/04/27 21:18:29;;;;;;;30.48;22.85;;;2.20;99.90;;;;;;5077226;28;20055;-91
2021/04/27 21:20:55;;;;;;;26.48;20.58;;;2.20;99.90;;;;;;5079766;28;20035;-91
2021/04/27 21:23:22;;;;;;;23.27;18.98;;;2.20;99.90;;;;;;5078559;28;20032;-92
2021/04/27 21:25:48;;;;;;;22.23;17.88;;;2.10;99.90;;;;;;5075359;28;20052;-91
2021/04/27 21:28:14;;;;;;;21.73;16.60;;;2.10;99.90;;;;;;5075171;28;20032;-90
2021/04/27 21:30:41;;;;;;;20.58;16.85;;;2.10;99.90;;;;;;5075405;28;20023;-92
2021/04/27 21:33:07;;;;;;;21.77;16.38;;;2.10;99.90;;;;;;5077535;28;20039;-92
2021/04/27 21:35:33;;;;;;;21.05;15.77;;;2.10;99.90;;;;;;5077129;28;20059;-92
2021/04/27 21:37:59;;;;;;;18.70;15.27;;;2.00;99.90;;;;;;5075267;28;20032;-92
2021/04/27 21:40:25;;;;;;;18.98;15.07;;;2.00;99.90;;;;;;5075929;28;20123;-91
2021/04/27 21:42:51;;;;;;;17.25;15.00;;;2.00;99.90;;;;;;5083237;28;20036;-91
2021/04/27 21:45:20;;;;;;;16.92;14.02;;;2.00;99.90;;;;;;5085713;28;20080;-91
2021/04/27 21:47:46;;;;;;;17.00;14.15;;;1.90;99.90;;;;;;5077841;28;20029;-91
2021/04/27 21:50:13;;;;;;;15.20;12.85;;;1.90;99.90;;;;;;5082449;28;20097;-91
2021/04/27 21:52:39;;;;;;;15.15;12.25;;;1.90;99.90;;;;;;5082888;28;20047;-91
2021/04/27 21:55:06;;;;;;;16.98;12.57;;;1.80;99.90;;;;;;5086174;28;20044;-91
2021/04/27 21:57:33;;;;;;;16.67;11.55;;;1.80;99.90;;;;;;5084610;28;20040;-91
2021/04/27 21:59:59;;;;;;;16.27;13.40;;;1.80;99.90;;;;;;5084156;28;20042;-91
2021/04/27 22:02:25;;;;;;;15.82;13.70;;;1.80;99.90;;;;;;5075603;28;20517;-91
2021/04/27 22:04:50;;;;;;;14.32;12.23;;;1.80;99.90;;;;;;5074665;28;20024;-91
2021/04/27 22:07:16;;;;;;;16.02;12.13;;;1.80;99.90;;;;;;5074517;28;20025;-91
2021/04/27 22:09:42;;;;;;;12.43;11.13;;;1.70;99.90;;;;;;5074767;28;20024;-91
2021/04/27 22:12:07;;;;;;;13.35;11.95;;;1.70;99.90;;;;;;5074156;28;20504;-91
2021/04/27 22:14:33;;;;;;;15.52;12.13;;;1.70;99.90;;;;;;5074297;28;20050;-91
2021/04/27 22:16:59;;;;;;;14.50;12.25;;;1.70;99.90;;;;;;5075509;28;20028;-91
2021/04/27 22:19:25;;;;;;;15.32;12.75;;;1.70;99.90;;;;;;5075460;28;20166;-91
2021/04/27 22:21:51;;;;;;;14.82;11.77;;;1.70;99.90;;;;;;5074264;28;20489;-91
2021/04/27 22:24:17;;;;;;;13.38;11.52;;;1.60;99.90;;;;;;5073783;28;20085;-91
2021/04/27 22:26:42;;;;;;;14.43;11.52;;;1.60;99.90;;;;;;5075250;28;20110;-91
2021/04/27 22:29:08;;;;;;;16.45;14.02;;;1.60;99.90;;;;;;5074025;28;20028;-91
2021/04/27 22:31:35;;;;;;;16.27;13.00;;;1.60;99.90;;;;;;5074981;28;20028;-91
2021/04/27 22:34:01;;;;;;;17.58;13.55;;;1.60;99.90;;;;;;5074897;28;20490;-91
2021/04/27 22:36:27;;;;;;;18.40;14.65;;;1.60;99.90;;;;;;5073657;28;20021;-91
2021/04/27 22:38:53;;;;;;;17.90;13.75;;;1.60;99.90;;;;;;5073638;28;20039;-91
2021/04/27 22:41:19;;;;;;;19.30;14.93;;;1.50;99.90;;;;;;5073715;28;20021;-92
2021/04/27 22:43:45;;;;;;;16.08;13.18;;;1.50;99.90;;;;;;5073804;28;20033;-91
2021/04/27 22:46:12;;;;;;;15.98;12.50;;;1.50;99.90;;;;;;5075211;28;20029;-91
2021/04/27 22:48:38;;;;;;;17.85;14.77;;;1.50;99.90;;;;;;5073922;28;20025;-91
2021/04/27 22:51:04;;;;;;;20.38;15.20;;;1.50;99.90;;;;;;5073477;28;20033;-92
2021/04/27 22:53:31;;;;;;;16.45;14.63;;;1.50;99.90;;;;;;5073374;28;20059;-91
2021/04/27 22:55:57;;;;;;;19.67;14.95;;;1.50;99.90;;;;;;5073370;28;20060;-91
2021/04/27 22:58:23;;;;;;;18.63;15.48;;;1.50;99.90;;;;;;5073341;28;20028;-91
2021/04/27 23:00:52;;;;;;;19.60;15.40;;;1.50;99.90;;;;;;5073520;28;20020;-91
2021/04/27 23:03:18;;;;;;;19.30;16.35;;;1.50;99.90;;;;;;5073131;28;20033;-91
2021/04/27 23:05:45;;;;;;;20.77;16.48;;;1.50;99.90;;;;;;5073151;28;20017;-91
2021/04/27 23:08:12;;;;;;;20.27;15.95;;;1.50;99.90;;;;;;5073176;28;20032;-91
2021/04/27 23:10:39;;;;;;;20.20;15.60;;;1.40;99.90;;;;;;5073545;28;20024;-91
2021/04/27 23:13:05;;;;;;;18.85;15.13;;;1.40;99.90;;;;;;5073219;28;20481;-91
2021/04/27 23:15:32;;;;;;;22.42;16.10;;;1.40;99.90;;;;;;5072779;28;20243;-91
2021/04/27 23:18:03;;;;;;;19.08;13.85;;;1.40;99.90;;;;;;5058568;28;20060;-91
2021/04/27 23:20:29;;;;;;;24.27;17.42;;;1.40;99.90;;;;;;5074399;28;20035;-91
2021/04/27 23:22:56;;;;;;;21.67;17.33;;;1.40;99.90;;;;;;5076756;28;20036;-91
2021/04/27 23:25:24;;;;;;;19.75;15.63;;;1.40;99.90;;;;;;5077311;28;20542;-91
2021/04/27 23:27:51;;;;;;;20.17;15.95;;;1.30;99.90;;;;;;5076107;28;20039;-91
2021/04/27 23:30:18;;;;;;;20.45;15.40;;;1.30;99.90;;;;;;5072590;28;20056;-91
2021/04/27 23:32:45;;;;;;;18.90;15.75;;;1.30;99.90;;;;;;5072465;28;20485;-92
2021/04/27 23:35:13;;;;;;;21.80;17.23;;;1.30;99.90;;;;;;5071837;28;20478;-91
2021/04/27 23:37:40;;;;;;;21.02;16.88;;;1.30;99.90;;;;;;5078115;28;20036;-91
2021/04/27 23:40:08;;;;;;;23.02;17.88;;;1.20;99.90;;;;;;5098724;28;20013;-91
2021/04/27 23:42:34;;;;;;;19.67;15.80;;;1.20;99.90;;;;;;5098308;28;20012;-91
2021/04/27 23:45:00;;;;;;;19.58;15.05;;;1.20;99.90;;;;;;5073829;28;20028;-91
2021/04/27 23:47:26;;;;;;;21.33;16.25;;;1.20;99.90;;;;;;5074338;28;20028;-91
2021/04/27 23:49:52;;;;;;;20.15;16.52;;;1.20;99.90;;;;;;5073813;28;20037;-90
2021/04/27 23:52:18;;;;;;;19.90;15.05;;;1.10;99.90;;;;;;5073367;28;20090;-91
2021/04/27 23:54:47;;;;;;;18.67;15.30;;;1.10;99.90;;;;;;5074220;28;20107;-91
2021/04/27 23:57:13;;;;;;;19.52;15.88;;;1.10;99.90;;;;;;5073809;28;20436;-90
2021/04/27 23:59:39;;;;;;;16.88;14.35;;;1.10;99.90;;;;;;5073854;28;20029;-91
